createdAt,value
2018-06-16T00:01:23.954Z,9.47
2018-06-16T00:03:51.759Z,8.60
2018-06-16T00:06:19.550Z,8.20
2018-06-16T00:08:47.371Z,8.90
2018-06-16T00:11:15.163Z,8.10
2018-06-16T00:13:43.003Z,7.87
2018-06-16T00:16:11.086Z,8.23
2018-06-16T00:18:39.057Z,8.30
2018-06-16T00:21:06.868Z,7.57
2018-06-16T00:23:34.662Z,7.60
2018-06-16T00:26:02.447Z,7.43
2018-06-16T00:28:30.260Z,8.03
2018-06-16T00:30:58.044Z,8.60
2018-06-16T00:33:25.851Z,8.40
2018-06-16T00:35:53.650Z,7.90
2018-06-16T00:38:21.467Z,8.10
2018-06-16T00:40:49.295Z,8.03
2018-06-16T00:43:17.083Z,8.20
2018-06-16T00:45:44.857Z,9.70
2018-06-16T00:48:12.679Z,7.63
2018-06-16T00:50:40.464Z,7.93
2018-06-16T00:53:08.286Z,8.33
2018-06-16T00:55:36.074Z,7.77
2018-06-16T00:58:03.885Z,9.37
2018-06-16T01:00:31.708Z,9.03
2018-06-16T01:02:59.495Z,9.00
2018-06-16T01:05:27.306Z,8.70
2018-06-16T01:07:55.094Z,8.77
2018-06-16T01:10:22.886Z,7.63
2018-06-16T01:12:50.690Z,9.50
2018-06-16T01:15:18.476Z,8.13
2018-06-16T01:17:46.285Z,8.90
2018-06-16T01:20:14.100Z,8.17
2018-06-16T01:22:41.911Z,8.60
2018-06-16T01:25:09.717Z,8.20
2018-06-16T01:27:37.507Z,8.73
2018-06-16T01:30:05.356Z,8.37
2018-06-16T01:32:33.166Z,9.47
2018-06-16T01:35:00.970Z,9.20
2018-06-16T01:37:28.791Z,9.40
2018-06-16T01:39:56.583Z,8.50
2018-06-16T01:42:24.398Z,8.70
2018-06-16T01:44:52.218Z,8.67
2018-06-16T01:47:20.032Z,9.10
2018-06-16T01:49:47.842Z,8.30
2018-06-16T01:52:15.626Z,8.73
2018-06-16T01:54:43.434Z,9.17
2018-06-16T01:57:11.252Z,9.17
2018-06-16T01:59:39.062Z,9.27
2018-06-16T02:02:06.887Z,8.67
2018-06-16T02:04:34.686Z,8.37
2018-06-16T02:07:02.516Z,8.93
2018-06-16T02:09:30.302Z,8.63
2018-06-16T02:11:58.119Z,9.57
2018-06-16T02:14:25.908Z,9.53
2018-06-16T02:16:53.695Z,9.07
2018-06-16T02:19:21.523Z,9.77
2018-06-16T02:21:49.314Z,10.23
2018-06-16T02:24:17.104Z,9.57
2018-06-16T02:26:44.926Z,8.13
2018-06-16T02:29:12.727Z,9.50
2018-06-16T02:31:40.541Z,8.63
2018-06-16T02:34:08.335Z,9.10
2018-06-16T02:36:36.151Z,8.63
2018-06-16T02:39:05.811Z,9.00
2018-06-16T02:41:33.622Z,9.00
2018-06-16T02:44:01.411Z,9.20
2018-06-16T02:46:29.219Z,9.67
2018-06-16T02:48:57.011Z,9.10
2018-06-16T02:51:24.833Z,8.43
2018-06-16T02:53:52.614Z,9.33
2018-06-16T02:56:20.399Z,9.37
2018-06-16T02:58:48.214Z,9.60
2018-06-16T03:01:16.002Z,8.97
2018-06-16T03:03:43.823Z,10.00
2018-06-16T03:06:11.612Z,9.07
2018-06-16T03:08:39.424Z,8.67
2018-06-16T03:11:07.255Z,9.30
2018-06-16T03:13:35.043Z,9.47
2018-06-16T03:16:02.828Z,9.30
2018-06-16T03:18:30.652Z,9.27
2018-06-16T03:20:58.467Z,8.40
2018-06-16T03:23:26.287Z,8.70
2018-06-16T03:25:54.096Z,8.93
2018-06-16T03:28:21.908Z,10.07
2018-06-16T03:30:49.699Z,8.77
2018-06-16T03:33:17.519Z,8.73
2018-06-16T03:35:45.305Z,8.50
2018-06-16T03:38:13.118Z,8.13
2018-06-16T03:40:40.908Z,9.43
2018-06-16T03:43:08.698Z,10.20
2018-06-16T03:45:36.511Z,9.57
2018-06-16T03:48:04.504Z,8.80
2018-06-16T03:50:32.327Z,10.23
2018-06-16T03:53:00.107Z,9.83
2018-06-16T03:55:27.902Z,8.53
2018-06-16T03:57:55.719Z,9.90
2018-06-16T04:00:23.530Z,8.83
2018-06-16T04:02:51.346Z,9.03
2018-06-16T04:05:19.126Z,9.50
2018-06-16T04:07:46.970Z,9.13
2018-06-16T04:10:14.838Z,9.33
2018-06-16T04:12:42.655Z,9.97
2018-06-16T04:15:10.475Z,10.30
2018-06-16T04:17:38.270Z,10.67
2018-06-16T04:20:06.095Z,9.30
2018-06-16T04:22:33.887Z,9.43
2018-06-16T04:25:01.707Z,9.77
2018-06-16T04:27:29.518Z,9.67
2018-06-16T04:29:57.322Z,9.10
2018-06-16T04:32:25.149Z,11.10
2018-06-16T04:34:52.982Z,10.20
2018-06-16T04:37:20.746Z,9.80
2018-06-16T04:39:48.548Z,8.70
2018-06-16T04:42:16.358Z,9.20
2018-06-16T04:44:44.145Z,9.80
2018-06-16T04:47:11.957Z,9.07
2018-06-16T04:49:39.751Z,11.00
2018-06-16T04:52:07.562Z,9.17
2018-06-16T04:54:35.352Z,8.53
2018-06-16T04:57:03.230Z,9.30
2018-06-16T04:59:30.959Z,8.80
2018-06-16T05:01:58.775Z,8.63
2018-06-16T05:04:26.562Z,8.67
2018-06-16T05:06:54.383Z,10.20
2018-06-16T05:09:22.199Z,9.93
2018-06-16T05:11:50.019Z,9.37
2018-06-16T05:14:17.852Z,9.90
2018-06-16T05:16:45.696Z,9.63
2018-06-16T05:19:13.506Z,9.63
2018-06-16T05:21:41.346Z,8.87
2018-06-16T05:24:09.154Z,9.20
2018-06-16T05:26:36.973Z,9.90
2018-06-16T05:29:04.786Z,9.47
2018-06-16T05:31:32.667Z,10.13
2018-06-16T05:34:00.478Z,10.17
2018-06-16T05:36:28.327Z,10.40
2018-06-16T05:38:56.177Z,10.47
2018-06-16T05:41:23.983Z,10.30
2018-06-16T05:43:51.863Z,9.50
2018-06-16T05:46:19.703Z,10.13
2018-06-16T05:48:47.549Z,10.57
2018-06-16T05:51:15.343Z,9.07
2018-06-16T05:53:43.181Z,9.37
2018-06-16T05:56:10.980Z,9.43
2018-06-16T05:58:38.812Z,10.30
2018-06-16T06:01:06.624Z,9.10
2018-06-16T06:03:34.451Z,8.77
2018-06-16T06:06:02.295Z,9.60
2018-06-16T06:08:30.120Z,9.07
2018-06-16T06:10:57.924Z,10.70
2018-06-16T06:13:25.760Z,10.00
2018-06-16T06:15:53.594Z,9.07
2018-06-16T06:18:21.418Z,8.60
2018-06-16T06:20:49.244Z,8.63
2018-06-16T06:23:17.094Z,9.40
2018-06-16T06:25:44.937Z,9.37
2018-06-16T06:28:12.789Z,10.37
2018-06-16T06:30:40.598Z,9.60
2018-06-16T06:33:08.505Z,8.90
2018-06-16T06:35:36.494Z,9.63
2018-06-16T06:38:04.276Z,8.63
2018-06-16T06:40:32.117Z,9.10
2018-06-16T06:42:59.996Z,8.07
2018-06-16T06:45:27.799Z,8.93
2018-06-16T06:47:55.604Z,7.80
2018-06-16T06:50:23.435Z,8.17
2018-06-16T06:52:51.325Z,7.80
2018-06-16T06:55:19.236Z,8.53
2018-06-16T06:57:47.079Z,6.70
2018-06-16T07:00:14.923Z,6.23
2018-06-16T07:02:42.762Z,5.90
2018-06-16T07:05:10.575Z,5.87
2018-06-16T07:07:38.422Z,5.80
2018-06-16T07:10:06.227Z,5.33
2018-06-16T07:12:34.071Z,5.20
2018-06-16T07:15:01.880Z,5.80
2018-06-16T07:17:30.724Z,7.20
2018-06-16T07:19:58.666Z,9.00
2018-06-16T07:22:26.475Z,7.20
2018-06-16T07:24:54.507Z,7.03
2018-06-16T07:27:22.325Z,7.47
2018-06-16T07:29:50.156Z,6.30
2018-06-16T07:32:17.966Z,5.57
2018-06-16T07:34:45.809Z,4.80
2018-06-16T07:37:13.655Z,5.70
2018-06-16T07:39:41.530Z,5.20
2018-06-16T07:42:09.328Z,4.90
2018-06-16T07:44:37.150Z,6.47
2018-06-16T07:47:05.027Z,5.53
2018-06-16T07:49:32.954Z,6.10
2018-06-16T07:52:00.764Z,7.30
2018-06-16T07:54:28.702Z,6.80
2018-06-16T07:56:56.517Z,6.53
2018-06-16T07:59:24.379Z,6.80
2018-06-16T08:01:52.199Z,6.90
2018-06-16T08:04:20.018Z,7.67
2018-06-16T08:06:47.833Z,6.47
2018-06-16T08:09:15.654Z,7.33
2018-06-16T08:11:43.477Z,11.00
2018-06-16T08:14:11.318Z,8.37
2018-06-16T08:16:39.215Z,7.23
2018-06-16T08:19:07.054Z,13.10
2018-06-16T08:21:34.877Z,7.40
2018-06-16T08:24:02.686Z,6.93
2018-06-16T08:26:30.528Z,6.70
2018-06-16T08:28:58.335Z,8.10
2018-06-16T08:31:26.231Z,6.53
2018-06-16T08:33:54.090Z,6.57
2018-06-16T08:39:53.265Z,6.90
2018-06-16T08:42:21.066Z,8.00
2018-06-16T08:44:48.908Z,7.50
2018-06-16T08:47:16.734Z,7.83
2018-06-16T08:49:44.565Z,6.90
2018-06-16T08:52:12.379Z,7.17
2018-06-16T08:55:43.666Z,7.00
2018-06-16T08:58:11.402Z,7.67
2018-06-16T09:00:39.276Z,7.80
2018-06-16T09:03:07.048Z,7.43
2018-06-16T09:05:34.870Z,7.97
2018-06-16T09:08:02.689Z,8.20
2018-06-16T09:10:30.511Z,7.73
2018-06-16T09:12:58.335Z,8.27
2018-06-16T09:15:26.784Z,7.93
2018-06-16T09:17:54.629Z,7.67
2018-06-16T09:20:22.460Z,8.37
2018-06-16T09:22:50.279Z,8.80
2018-06-16T09:25:18.098Z,8.63
2018-06-16T09:27:45.911Z,9.13
2018-06-16T09:30:13.761Z,8.20
2018-06-16T09:32:41.616Z,9.03
2018-06-16T09:35:09.647Z,8.07
2018-06-16T09:37:38.930Z,8.50
2018-06-16T09:40:06.774Z,8.40
2018-06-16T09:42:34.637Z,8.43
2018-06-16T09:45:02.427Z,8.90
2018-06-16T09:47:30.246Z,8.50
2018-06-16T09:49:58.059Z,7.63
2018-06-16T09:52:25.911Z,7.63
2018-06-16T09:54:53.718Z,8.93
2018-06-16T09:57:21.797Z,8.60
2018-06-16T09:59:49.908Z,7.57
2018-06-16T10:02:17.731Z,8.13
2018-06-16T10:04:45.680Z,6.83
2018-06-16T10:07:13.577Z,7.17
2018-06-16T10:09:41.387Z,6.70
2018-06-16T10:12:09.491Z,7.90
2018-06-16T10:14:37.574Z,7.70
2018-06-16T10:17:05.528Z,8.03
2018-06-16T10:19:33.475Z,8.67
2018-06-16T10:22:01.295Z,8.63
2018-06-16T10:24:29.162Z,7.90
2018-06-16T10:26:56.991Z,7.63
2018-06-16T10:29:24.830Z,7.77
2018-06-16T10:31:52.661Z,7.03
2018-06-16T10:34:20.553Z,6.57
2018-06-16T10:36:48.375Z,7.30
2018-06-16T10:39:16.185Z,7.47
2018-06-16T10:41:44.006Z,7.83
2018-06-16T10:44:11.814Z,7.73
2018-06-16T10:46:39.636Z,7.67
2018-06-16T10:49:07.475Z,9.20
2018-06-16T10:51:35.295Z,9.13
2018-06-16T10:54:03.127Z,8.70
2018-06-16T10:56:30.948Z,9.03
2018-06-16T10:58:58.771Z,8.50
2018-06-16T11:01:26.593Z,8.50
2018-06-16T11:03:54.420Z,9.30
2018-06-16T11:06:22.238Z,8.67
2018-06-16T11:08:50.073Z,9.60
2018-06-16T11:14:10.669Z,8.27
2018-06-16T11:16:38.510Z,7.70
2018-06-16T11:19:06.893Z,8.90
2018-06-16T11:21:34.747Z,9.87
2018-06-16T11:24:02.571Z,8.63
2018-06-16T11:26:30.411Z,7.33
2018-06-16T11:28:58.240Z,7.40
2018-06-16T11:31:26.081Z,8.67
2018-06-16T11:33:53.902Z,8.00
2018-06-16T11:36:21.725Z,7.57
2018-06-16T11:38:49.567Z,8.57
2018-06-16T11:41:17.391Z,8.00
2018-06-16T11:43:45.702Z,9.67
2018-06-16T11:46:13.533Z,9.97
2018-06-16T11:48:41.379Z,10.83
2018-06-16T11:51:09.211Z,10.40
2018-06-16T11:53:37.130Z,11.00
2018-06-16T11:56:05.210Z,10.33
2018-06-16T11:58:33.055Z,10.97
2018-06-16T12:01:00.862Z,8.50
2018-06-16T12:03:28.694Z,8.20
2018-06-16T12:05:56.575Z,7.80
2018-06-16T12:08:24.404Z,9.53
2018-06-16T12:10:52.503Z,8.53
2018-06-16T12:13:20.451Z,7.97
2018-06-16T12:15:48.298Z,9.90
2018-06-16T12:18:16.152Z,8.10
2018-06-16T12:20:43.987Z,8.53
2018-06-16T12:23:11.886Z,9.73
2018-06-16T12:25:40.837Z,10.20
2018-06-16T12:28:10.489Z,9.63
2018-06-16T12:30:39.886Z,8.50
2018-06-16T12:33:07.962Z,8.73
2018-06-16T12:35:37.901Z,8.70
2018-06-16T12:38:06.020Z,7.20
2018-06-16T12:40:33.826Z,8.20
2018-06-16T12:43:01.679Z,8.60
2018-06-16T12:45:29.507Z,7.33
2018-06-16T12:47:57.314Z,7.37
2018-06-16T12:50:25.491Z,7.53
2018-06-16T12:52:53.290Z,7.67
2018-06-16T12:55:21.118Z,7.87
2018-06-16T12:57:48.978Z,6.80
2018-06-16T13:00:16.771Z,7.33
2018-06-16T13:02:44.608Z,7.80
2018-06-16T13:05:12.401Z,7.13
2018-06-16T13:07:40.214Z,7.13
2018-06-16T13:10:08.068Z,6.40
2018-06-16T13:12:35.866Z,6.40
2018-06-16T13:15:03.727Z,6.37
2018-06-16T13:17:31.534Z,7.10
2018-06-16T13:19:59.371Z,6.57
2018-06-16T13:22:27.207Z,6.50
2018-06-16T13:24:55.067Z,6.70
2018-06-16T13:27:24.102Z,6.63
2018-06-16T13:29:51.915Z,6.73
2018-06-16T13:32:19.781Z,6.50
2018-06-16T13:34:47.623Z,6.50
2018-06-16T13:37:15.436Z,6.17
2018-06-16T13:39:44.200Z,6.17
2018-06-16T13:42:12.327Z,6.60
2018-06-16T13:44:40.170Z,6.30
2018-06-16T13:47:08.048Z,6.50
2018-06-16T13:49:35.879Z,7.07
2018-06-16T13:52:03.692Z,6.80
2018-06-16T13:54:31.507Z,6.30
2018-06-16T13:56:59.318Z,7.00
2018-06-16T13:59:27.194Z,7.10
2018-06-16T14:01:55.014Z,7.40
2018-06-16T14:04:22.823Z,7.40
2018-06-16T14:06:50.635Z,6.23
2018-06-16T14:09:18.446Z,6.37
2018-06-16T14:11:46.258Z,7.07
2018-06-16T14:14:14.050Z,6.73
2018-06-16T14:16:41.875Z,6.20
2018-06-16T14:19:09.684Z,6.60
2018-06-16T14:21:37.498Z,6.73
2018-06-16T14:24:05.314Z,6.87
2018-06-16T14:26:33.158Z,7.33
2018-06-16T14:29:00.952Z,7.47
2018-06-16T14:31:28.791Z,7.37
2018-06-16T14:33:56.596Z,8.30
2018-06-16T14:36:24.420Z,7.10
2018-06-16T14:38:52.240Z,6.50
2018-06-16T14:41:20.579Z,7.70
2018-06-16T14:43:48.585Z,6.80
2018-06-16T14:46:16.542Z,6.93
2018-06-16T14:48:44.415Z,6.53
2018-06-16T14:51:12.231Z,6.53
2018-06-16T14:53:40.022Z,6.37
2018-06-16T14:56:07.833Z,7.40
2018-06-16T14:58:35.626Z,6.67
2018-06-16T15:01:03.443Z,6.33
2018-06-16T15:03:31.263Z,5.80
2018-06-16T15:05:59.127Z,5.50
2018-06-16T15:08:26.968Z,6.43
2018-06-16T15:10:55.422Z,10.10
2018-06-16T15:13:24.685Z,6.03
2018-06-16T15:15:53.824Z,5.70
2018-06-16T15:18:21.702Z,5.73
2018-06-16T15:20:54.948Z,5.77
2018-06-16T15:23:24.831Z,6.20
2018-06-16T15:25:55.622Z,5.53
2018-06-16T15:28:23.596Z,6.53
2018-06-16T15:30:51.475Z,5.80
2018-06-16T15:33:19.278Z,6.00
2018-06-16T15:35:47.103Z,5.70
2018-06-16T15:38:21.694Z,6.00
2018-06-16T15:40:49.508Z,6.40
2018-06-16T15:43:17.314Z,6.00
2018-06-16T15:45:45.146Z,5.73
2018-06-16T15:48:12.959Z,6.20
2018-06-16T15:50:40.807Z,5.93
2018-06-16T15:53:08.604Z,5.90
2018-06-16T15:55:36.563Z,6.13
2018-06-16T15:58:04.597Z,5.30
2018-06-16T16:00:32.554Z,5.30
2018-06-16T16:03:00.441Z,5.73
2018-06-16T16:05:28.535Z,5.40
2018-06-16T16:07:56.370Z,5.30
2018-06-16T16:10:24.677Z,4.70
2018-06-16T16:12:52.576Z,5.67
2018-06-16T16:15:21.303Z,5.10
2018-06-16T16:17:49.095Z,5.73
2018-06-16T16:20:16.915Z,6.67
2018-06-16T16:22:44.726Z,6.20
2018-06-16T16:25:12.541Z,6.80
2018-06-16T16:27:40.350Z,5.90
2018-06-16T16:30:08.405Z,5.77
2018-06-16T16:32:36.214Z,5.83
2018-06-16T16:35:04.046Z,6.13
2018-06-16T16:37:31.938Z,6.00
2018-06-16T16:39:59.742Z,5.77
2018-06-16T16:42:27.546Z,6.00
2018-06-16T16:44:55.375Z,6.10
2018-06-16T16:47:23.436Z,5.87
2018-06-16T16:49:51.230Z,5.30
2018-06-16T16:52:19.139Z,5.73
2018-06-16T16:54:47.138Z,5.30
2018-06-16T16:57:14.942Z,5.77
2018-06-16T16:59:43.201Z,5.63
2018-06-16T17:02:11.010Z,5.90
2018-06-16T17:04:38.882Z,6.00
2018-06-16T17:07:06.852Z,5.17
2018-06-16T17:09:34.686Z,5.20
2018-06-16T17:12:02.476Z,5.20
2018-06-16T17:14:30.311Z,5.07
2018-06-16T17:16:58.626Z,5.77
2018-06-16T17:19:26.484Z,4.70
2018-06-16T17:21:54.331Z,4.80
2018-06-16T17:24:27.387Z,4.53
2018-06-16T17:26:55.271Z,4.70
2018-06-16T17:29:24.787Z,3.97
2018-06-16T17:31:53.399Z,4.17
2018-06-16T17:34:22.905Z,4.30
2018-06-16T17:36:51.948Z,4.13
2018-06-16T17:39:20.037Z,4.77
2018-06-16T17:42:41.232Z,4.67
2018-06-16T17:45:09.035Z,4.80
2018-06-16T17:47:37.556Z,4.00
2018-06-16T17:50:05.360Z,4.80
2018-06-16T17:52:33.200Z,4.73
2018-06-16T17:55:01.159Z,4.00
2018-06-16T17:57:28.975Z,3.90
2018-06-16T17:59:56.944Z,4.20
2018-06-16T18:02:24.767Z,4.13
2018-06-16T18:04:53.234Z,3.77
2018-06-16T18:07:21.151Z,4.23
2018-06-16T18:09:48.954Z,4.27
2018-06-16T18:12:16.790Z,4.57
2018-06-16T18:14:44.623Z,8.17
2018-06-16T18:17:12.475Z,36.23
2018-06-16T18:19:40.278Z,4.23
2018-06-16T18:22:08.118Z,4.83
2018-06-16T18:24:35.922Z,4.13
2018-06-16T18:27:03.787Z,4.23
2018-06-16T18:29:31.586Z,6.43
2018-06-16T18:31:59.412Z,4.20
2018-06-16T18:34:27.235Z,3.77
2018-06-16T18:36:55.048Z,3.80
2018-06-16T18:39:22.867Z,4.47
2018-06-16T18:41:50.683Z,4.60
2018-06-16T18:44:18.504Z,4.33
2018-06-16T18:46:46.311Z,4.67
2018-06-16T18:49:14.130Z,4.77
2018-06-16T18:51:42.163Z,4.53
2018-06-16T18:54:09.971Z,5.13
2018-06-16T18:56:37.777Z,4.33
2018-06-16T18:59:05.606Z,4.60
2018-06-16T19:01:33.461Z,4.60
2018-06-16T19:04:01.379Z,4.60
2018-06-16T19:06:29.231Z,4.90
2018-06-16T19:08:57.119Z,5.10
2018-06-16T19:11:25.148Z,4.90
2018-06-16T19:13:53.002Z,4.50
2018-06-16T19:16:20.942Z,5.30
2018-06-16T19:18:49.574Z,5.23
2018-06-16T19:21:17.779Z,5.10
2018-06-16T19:23:45.657Z,5.13
2018-06-16T19:26:13.509Z,5.23
2018-06-16T19:28:41.374Z,5.80
2018-06-16T19:31:09.102Z,5.13
2018-06-16T19:33:36.926Z,5.60
2018-06-16T19:36:04.952Z,5.00
2018-06-16T19:38:32.747Z,4.90
2018-06-16T19:41:00.578Z,5.20
2018-06-16T19:43:29.827Z,4.50
2018-06-16T19:45:57.660Z,5.20
2018-06-16T19:48:25.604Z,5.03
2018-06-16T19:50:53.635Z,4.90
2018-06-16T19:53:21.456Z,4.90
2018-06-16T19:55:49.511Z,4.90
2018-06-16T19:58:17.770Z,5.07
2018-06-16T20:00:48.955Z,4.77
2018-06-16T20:03:18.480Z,4.67
2018-06-16T20:05:47.357Z,4.70
2018-06-16T20:08:15.231Z,5.30
2018-06-16T20:10:46.106Z,4.93
2018-06-16T20:13:15.190Z,5.53
2018-06-16T20:15:47.443Z,5.00
2018-06-16T20:18:15.546Z,4.60
2018-06-16T20:20:43.402Z,5.13
2018-06-16T20:23:11.259Z,4.30
2018-06-16T20:25:39.131Z,5.10
2018-06-16T20:28:11.455Z,4.50
2018-06-16T20:30:39.698Z,4.87
2018-06-16T20:33:07.503Z,4.77
2018-06-16T20:35:35.332Z,4.40
2018-06-16T20:38:03.136Z,4.20
2018-06-16T20:40:31.132Z,5.03
2018-06-16T20:42:58.939Z,4.50
2018-06-16T20:45:26.767Z,4.50
2018-06-16T20:47:54.663Z,4.90
2018-06-16T20:50:22.448Z,4.40
2018-06-16T20:52:50.252Z,5.23
2018-06-16T20:55:18.104Z,4.50
2018-06-16T20:57:45.938Z,4.67
2018-06-16T21:00:13.745Z,4.73
2018-06-16T21:02:41.539Z,4.40
2018-06-16T21:05:09.371Z,4.23
2018-06-16T21:07:37.176Z,4.20
2018-06-16T21:10:05.070Z,4.40
2018-06-16T21:12:32.876Z,4.00
2018-06-16T21:15:00.766Z,4.53
2018-06-16T21:17:28.624Z,3.80
2018-06-16T21:19:56.783Z,4.83
2018-06-16T21:22:24.602Z,4.77
2018-06-16T21:24:52.397Z,4.40
2018-06-16T21:27:20.220Z,3.90
2018-06-16T21:29:48.023Z,4.67
2018-06-16T21:32:15.871Z,4.10
2018-06-16T21:34:43.716Z,4.13
2018-06-16T21:37:11.490Z,4.20
2018-06-16T21:39:39.320Z,4.40
2018-06-16T21:42:07.372Z,4.60
2018-06-16T21:44:35.173Z,4.30
2018-06-16T21:47:02.975Z,4.13
2018-06-16T21:49:31.068Z,4.83
2018-06-16T21:51:58.933Z,4.40
2018-06-16T21:54:26.728Z,5.40
2018-06-16T21:56:54.559Z,4.30
2018-06-16T21:59:22.358Z,4.80
2018-06-16T22:01:50.179Z,4.40
2018-06-16T22:04:18.046Z,4.57
2018-06-16T22:06:45.850Z,4.30
2018-06-16T22:09:13.671Z,4.33
2018-06-16T22:11:41.540Z,4.47
2018-06-16T22:14:09.361Z,4.80
2018-06-16T22:16:37.171Z,4.83
2018-06-16T22:19:05.004Z,5.07
2018-06-16T22:21:32.999Z,4.47
2018-06-16T22:24:01.078Z,5.37
2018-06-16T22:26:28.949Z,5.40
2018-06-16T22:28:56.746Z,5.10
2018-06-16T22:31:24.546Z,5.33
2018-06-16T22:33:52.375Z,5.37
2018-06-16T22:36:20.182Z,5.60
2018-06-16T22:38:48.130Z,4.90
2018-06-16T22:41:15.922Z,4.93
2018-06-16T22:43:43.727Z,4.87
2018-06-16T22:46:11.672Z,5.30
2018-06-16T22:48:39.522Z,4.87
2018-06-16T22:51:07.550Z,5.80
2018-06-16T22:53:36.217Z,5.47
2018-06-16T22:56:05.303Z,5.87
2018-06-16T22:58:36.294Z,5.90
2018-06-16T23:01:05.287Z,5.63
2018-06-16T23:03:33.192Z,5.70
2018-06-16T23:06:02.298Z,5.80
2018-06-16T23:08:30.472Z,6.27
2018-06-16T23:10:58.547Z,7.17
2018-06-16T23:13:28.449Z,6.40
2018-06-16T23:15:56.665Z,8.00
2018-06-16T23:18:24.847Z,6.93
2018-06-16T23:20:53.162Z,7.30
2018-06-16T23:23:22.086Z,8.20
2018-06-16T23:25:51.477Z,8.20
2018-06-16T23:28:22.007Z,7.80
2018-06-16T23:30:49.956Z,8.70
2018-06-16T23:33:18.561Z,7.33
2018-06-16T23:35:48.500Z,7.20
2018-06-16T23:38:17.332Z,7.27
2018-06-16T23:40:46.875Z,6.93
2018-06-16T23:43:15.746Z,8.40
2018-06-16T23:45:44.554Z,7.50
2018-06-16T23:48:13.550Z,6.97
2018-06-16T23:50:42.442Z,7.40
2018-06-16T23:53:10.359Z,8.43
2018-06-16T23:55:38.239Z,6.43
2018-06-16T23:58:06.066Z,8.13
